sensor_id;sensor_type;location;lat;lon;timestamp;P1;durP1;ratioP1;P2;durP2;ratioP2
39434;SDS011;30098;51.880;-0.518;2022-10-16T00:01:21;4.28;;;1.30;;
39434;SDS011;30098;51.880;-0.518;2022-10-16T00:03:49;3.60;;;1.35;;
39434;SDS011;30098;51.880;-0.518;2022-10-16T00:06:16;5.68;;;1.50;;
39434;SDS011;30098;51.880;-0.518;2022-10-16T00:08:42;4.20;;;1.40;;
39434;SDS011;30098;51.880;-0.518;2022-10-16T00:13:39;4.75;;;1.50;;
39434;SDS011;30098;51.880;-0.518;2022-10-16T00:16:06;2.80;;;1.20;;
39434;SDS011;30098;51.880;-0.518;2022-10-16T00:18:33;4.25;;;1.63;;
39434;SDS011;30098;51.880;-0.518;2022-10-16T00:21:03;4.57;;;1.50;;
39434;SDS011;30098;51.880;-0.518;2022-10-16T00:23:30;3.05;;;1.40;;
39434;SDS011;30098;51.880;-0.518;2022-10-16T00:25:57;4.18;;;1.60;;
39434;SDS011;30098;51.880;-0.518;2022-10-16T00:28:24;3.83;;;1.35;;
39434;SDS011;30098;51.880;-0.518;2022-10-16T00:30:50;4.38;;;1.30;;
39434;SDS011;30098;51.880;-0.518;2022-10-16T00:33:15;3.45;;;1.30;;
39434;SDS011;30098;51.880;-0.518;2022-10-16T00:35:41;4.55;;;1.80;;
39434;SDS011;30098;51.880;-0.518;2022-10-16T00:38:06;4.45;;;1.15;;
39434;SDS011;30098;51.880;-0.518;2022-10-16T00:40:32;3.92;;;1.23;;
39434;SDS011;30098;51.880;-0.518;2022-10-16T00:42:57;3.20;;;1.20;;
39434;SDS011;30098;51.880;-0.518;2022-10-16T00:45:23;5.00;;;1.38;;
39434;SDS011;30098;51.880;-0.518;2022-10-16T00:47:49;3.45;;;1.27;;
39434;SDS011;30098;51.880;-0.518;2022-10-16T00:50:27;3.35;;;1.30;;
39434;SDS011;30098;51.880;-0.518;2022-10-16T00:52:55;4.13;;;1.55;;
39434;SDS011;30098;51.880;-0.518;2022-10-16T00:55:22;3.15;;;1.40;;
39434;SDS011;30098;51.880;-0.518;2022-10-16T00:57:49;3.30;;;1.20;;
39434;SDS011;30098;51.880;-0.518;2022-10-16T01:00:18;3.22;;;1.10;;
39434;SDS011;30098;51.880;-0.518;2022-10-16T01:02:53;2.85;;;1.20;;
39434;SDS011;30098;51.880;-0.518;2022-10-16T01:05:24;2.95;;;1.20;;
39434;SDS011;30098;51.880;-0.518;2022-10-16T01:10:54;3.25;;;1.23;;
39434;SDS011;30098;51.880;-0.518;2022-10-16T01:13:46;2.78;;;1.20;;
39434;SDS011;30098;51.880;-0.518;2022-10-16T01:16:39;3.15;;;1.08;;
39434;SDS011;30098;51.880;-0.518;2022-10-16T01:19:20;3.30;;;1.17;;
39434;SDS011;30098;51.880;-0.518;2022-10-16T01:21:59;3.53;;;1.40;;
39434;SDS011;30098;51.880;-0.518;2022-10-16T01:27:18;2.75;;;1.00;;
39434;SDS011;30098;51.880;-0.518;2022-10-16T01:32:36;3.35;;;1.17;;
39434;SDS011;30098;51.880;-0.518;2022-10-16T01:35:04;3.17;;;1.25;;
39434;SDS011;30098;51.880;-0.518;2022-10-16T01:37:56;2.50;;;1.10;;
39434;SDS011;30098;51.880;-0.518;2022-10-16T01:40:27;4.22;;;1.08;;
39434;SDS011;30098;51.880;-0.518;2022-10-16T01:43:05;3.10;;;1.30;;
39434;SDS011;30098;51.880;-0.518;2022-10-16T01:45:47;4.32;;;1.20;;
39434;SDS011;30098;51.880;-0.518;2022-10-16T01:48:13;4.03;;;1.40;;
39434;SDS011;30098;51.880;-0.518;2022-10-16T01:50:43;2.70;;;1.13;;
39434;SDS011;30098;51.880;-0.518;2022-10-16T01:53:14;3.28;;;1.02;;
39434;SDS011;30098;51.880;-0.518;2022-10-16T01:55:43;3.08;;;1.30;;
39434;SDS011;30098;51.880;-0.518;2022-10-16T01:58:12;2.95;;;1.23;;
39434;SDS011;30098;51.880;-0.518;2022-10-16T02:00:39;3.05;;;1.35;;
39434;SDS011;30098;51.880;-0.518;2022-10-16T02:03:07;2.97;;;1.10;;
39434;SDS011;30098;51.880;-0.518;2022-10-16T02:05:46;2.95;;;1.20;;
39434;SDS011;30098;51.880;-0.518;2022-10-16T02:08:16;3.60;;;1.30;;
39434;SDS011;30098;51.880;-0.518;2022-10-16T02:10:42;2.97;;;1.15;;
39434;SDS011;30098;51.880;-0.518;2022-10-16T02:15:52;3.28;;;1.20;;
39434;SDS011;30098;51.880;-0.518;2022-10-16T02:18:18;3.45;;;1.15;;
39434;SDS011;30098;51.880;-0.518;2022-10-16T02:20:51;3.47;;;1.10;;
39434;SDS011;30098;51.880;-0.518;2022-10-16T02:23:24;4.32;;;1.20;;
39434;SDS011;30098;51.880;-0.518;2022-10-16T02:26:09;4.65;;;1.50;;
39434;SDS011;30098;51.880;-0.518;2022-10-16T02:28:42;3.42;;;1.20;;
39434;SDS011;30098;51.880;-0.518;2022-10-16T02:31:12;4.05;;;1.38;;
39434;SDS011;30098;51.880;-0.518;2022-10-16T02:33:43;4.57;;;1.50;;
39434;SDS011;30098;51.880;-0.518;2022-10-16T02:36:10;3.97;;;1.45;;
39434;SDS011;30098;51.880;-0.518;2022-10-16T02:38:37;3.55;;;1.10;;
39434;SDS011;30098;51.880;-0.518;2022-10-16T02:41:04;2.75;;;1.20;;
39434;SDS011;30098;51.880;-0.518;2022-10-16T02:43:31;3.88;;;1.35;;
39434;SDS011;30098;51.880;-0.518;2022-10-16T02:45:58;3.33;;;1.00;;
39434;SDS011;30098;51.880;-0.518;2022-10-16T02:48:24;2.95;;;1.20;;
39434;SDS011;30098;51.880;-0.518;2022-10-16T02:50:49;3.50;;;1.25;;
39434;SDS011;30098;51.880;-0.518;2022-10-16T02:53:16;3.38;;;1.38;;
39434;SDS011;30098;51.880;-0.518;2022-10-16T02:55:41;3.58;;;1.20;;
39434;SDS011;30098;51.880;-0.518;2022-10-16T02:58:07;3.65;;;1.38;;
39434;SDS011;30098;51.880;-0.518;2022-10-16T03:00:32;3.28;;;1.40;;
39434;SDS011;30098;51.880;-0.518;2022-10-16T03:02:58;4.05;;;1.10;;
39434;SDS011;30098;51.880;-0.518;2022-10-16T03:05:23;4.22;;;1.35;;
39434;SDS011;30098;51.880;-0.518;2022-10-16T03:07:49;3.92;;;1.33;;
39434;SDS011;30098;51.880;-0.518;2022-10-16T03:10:14;3.15;;;1.30;;
39434;SDS011;30098;51.880;-0.518;2022-10-16T03:12:40;3.33;;;1.10;;
39434;SDS011;30098;51.880;-0.518;2022-10-16T03:15:05;3.33;;;1.33;;
39434;SDS011;30098;51.880;-0.518;2022-10-16T03:17:32;4.18;;;1.20;;
39434;SDS011;30098;51.880;-0.518;2022-10-16T03:19:58;3.72;;;1.25;;
39434;SDS011;30098;51.880;-0.518;2022-10-16T03:22:23;3.85;;;1.33;;
39434;SDS011;30098;51.880;-0.518;2022-10-16T03:24:48;3.95;;;1.30;;
39434;SDS011;30098;51.880;-0.518;2022-10-16T03:27:14;3.03;;;1.20;;
39434;SDS011;30098;51.880;-0.518;2022-10-16T03:29:39;3.83;;;1.25;;
39434;SDS011;30098;51.880;-0.518;2022-10-16T03:32:05;3.88;;;1.33;;
39434;SDS011;30098;51.880;-0.518;2022-10-16T03:34:30;3.55;;;1.30;;
39434;SDS011;30098;51.880;-0.518;2022-10-16T03:36:56;4.10;;;1.02;;
39434;SDS011;30098;51.880;-0.518;2022-10-16T03:39:21;4.10;;;1.00;;
39434;SDS011;30098;51.880;-0.518;2022-10-16T03:41:47;3.35;;;1.30;;
39434;SDS011;30098;51.880;-0.518;2022-10-16T03:44:12;3.00;;;1.02;;
39434;SDS011;30098;51.880;-0.518;2022-10-16T03:46:38;3.83;;;1.10;;
39434;SDS011;30098;51.880;-0.518;2022-10-16T03:49:04;4.03;;;1.30;;
39434;SDS011;30098;51.880;-0.518;2022-10-16T03:51:29;2.17;;;0.93;;
39434;SDS011;30098;51.880;-0.518;2022-10-16T03:53:55;4.93;;;1.40;;
39434;SDS011;30098;51.880;-0.518;2022-10-16T03:56:20;3.00;;;1.08;;
39434;SDS011;30098;51.880;-0.518;2022-10-16T03:58:46;2.50;;;0.90;;
39434;SDS011;30098;51.880;-0.518;2022-10-16T04:01:11;3.58;;;1.20;;
39434;SDS011;30098;51.880;-0.518;2022-10-16T04:03:37;3.20;;;1.25;;
39434;SDS011;30098;51.880;-0.518;2022-10-16T04:06:02;3.20;;;1.13;;
39434;SDS011;30098;51.880;-0.518;2022-10-16T04:08:28;2.78;;;1.02;;
39434;SDS011;30098;51.880;-0.518;2022-10-16T04:10:53;3.42;;;1.05;;
39434;SDS011;30098;51.880;-0.518;2022-10-16T04:13:19;3.63;;;1.00;;
39434;SDS011;30098;51.880;-0.518;2022-10-16T04:15:44;3.47;;;1.30;;
39434;SDS011;30098;51.880;-0.518;2022-10-16T04:18:10;4.43;;;1.45;;
39434;SDS011;30098;51.880;-0.518;2022-10-16T04:20:36;3.72;;;1.20;;
39434;SDS011;30098;51.880;-0.518;2022-10-16T04:23:01;4.30;;;1.27;;
39434;SDS011;30098;51.880;-0.518;2022-10-16T04:25:27;3.50;;;1.10;;
39434;SDS011;30098;51.880;-0.518;2022-10-16T04:27:53;2.72;;;1.00;;
39434;SDS011;30098;51.880;-0.518;2022-10-16T04:30:19;3.53;;;1.00;;
39434;SDS011;30098;51.880;-0.518;2022-10-16T04:32:49;4.57;;;1.33;;
39434;SDS011;30098;51.880;-0.518;2022-10-16T04:35:16;3.78;;;1.05;;
39434;SDS011;30098;51.880;-0.518;2022-10-16T04:37:42;2.60;;;1.20;;
39434;SDS011;30098;51.880;-0.518;2022-10-16T04:40:08;2.50;;;0.95;;
39434;SDS011;30098;51.880;-0.518;2022-10-16T04:42:33;3.33;;;0.85;;
39434;SDS011;30098;51.880;-0.518;2022-10-16T04:44:59;3.05;;;1.20;;
39434;SDS011;30098;51.880;-0.518;2022-10-16T04:47:24;2.88;;;1.15;;
39434;SDS011;30098;51.880;-0.518;2022-10-16T04:49:50;3.47;;;1.15;;
39434;SDS011;30098;51.880;-0.518;2022-10-16T04:52:15;3.47;;;1.02;;
39434;SDS011;30098;51.880;-0.518;2022-10-16T04:54:41;3.03;;;1.05;;
39434;SDS011;30098;51.880;-0.518;2022-10-16T04:57:06;4.20;;;1.45;;
39434;SDS011;30098;51.880;-0.518;2022-10-16T04:59:32;3.75;;;1.30;;
39434;SDS011;30098;51.880;-0.518;2022-10-16T05:01:57;2.92;;;1.10;;
39434;SDS011;30098;51.880;-0.518;2022-10-16T05:04:23;2.92;;;1.00;;
39434;SDS011;30098;51.880;-0.518;2022-10-16T05:06:48;3.75;;;1.17;;
39434;SDS011;30098;51.880;-0.518;2022-10-16T05:09:14;2.83;;;1.00;;
39434;SDS011;30098;51.880;-0.518;2022-10-16T05:11:39;3.50;;;1.10;;
39434;SDS011;30098;51.880;-0.518;2022-10-16T05:14:05;3.85;;;1.10;;
39434;SDS011;30098;51.880;-0.518;2022-10-16T05:16:30;3.20;;;1.08;;
39434;SDS011;30098;51.880;-0.518;2022-10-16T05:18:56;2.92;;;1.08;;
39434;SDS011;30098;51.880;-0.518;2022-10-16T05:21:21;3.95;;;1.23;;
39434;SDS011;30098;51.880;-0.518;2022-10-16T05:23:47;3.25;;;1.00;;
39434;SDS011;30098;51.880;-0.518;2022-10-16T05:26:12;3.58;;;0.95;;
39434;SDS011;30098;51.880;-0.518;2022-10-16T05:28:38;3.60;;;1.20;;
39434;SDS011;30098;51.880;-0.518;2022-10-16T05:31:04;2.45;;;0.98;;
39434;SDS011;30098;51.880;-0.518;2022-10-16T05:33:34;2.33;;;0.90;;
39434;SDS011;30098;51.880;-0.518;2022-10-16T05:36:07;2.67;;;0.90;;
39434;SDS011;30098;51.880;-0.518;2022-10-16T05:38:34;3.00;;;1.00;;
39434;SDS011;30098;51.880;-0.518;2022-10-16T05:41:01;3.33;;;1.23;;
39434;SDS011;30098;51.880;-0.518;2022-10-16T05:43:27;2.83;;;1.00;;
39434;SDS011;30098;51.880;-0.518;2022-10-16T05:45:57;2.75;;;0.90;;
39434;SDS011;30098;51.880;-0.518;2022-10-16T05:48:24;3.05;;;0.82;;
39434;SDS011;30098;51.880;-0.518;2022-10-16T05:50:56;4.10;;;1.10;;
39434;SDS011;30098;51.880;-0.518;2022-10-16T05:53:29;3.58;;;1.20;;
39434;SDS011;30098;51.880;-0.518;2022-10-16T05:55:55;2.80;;;0.88;;
39434;SDS011;30098;51.880;-0.518;2022-10-16T05:58:21;2.42;;;0.90;;
39434;SDS011;30098;51.880;-0.518;2022-10-16T06:00:54;2.92;;;0.90;;
39434;SDS011;30098;51.880;-0.518;2022-10-16T06:03:27;2.95;;;1.00;;
39434;SDS011;30098;51.880;-0.518;2022-10-16T06:05:53;3.70;;;1.10;;
39434;SDS011;30098;51.880;-0.518;2022-10-16T06:08:19;3.28;;;0.90;;
39434;SDS011;30098;51.880;-0.518;2022-10-16T06:10:47;3.20;;;1.30;;
39434;SDS011;30098;51.880;-0.518;2022-10-16T06:13:13;3.15;;;1.00;;
39434;SDS011;30098;51.880;-0.518;2022-10-16T06:15:40;2.90;;;0.90;;
39434;SDS011;30098;51.880;-0.518;2022-10-16T06:18:07;2.67;;;1.00;;
39434;SDS011;30098;51.880;-0.518;2022-10-16T06:20:34;1.65;;;0.77;;
39434;SDS011;30098;51.880;-0.518;2022-10-16T06:23:00;3.25;;;1.23;;
39434;SDS011;30098;51.880;-0.518;2022-10-16T06:25:25;3.15;;;1.00;;
39434;SDS011;30098;51.880;-0.518;2022-10-16T06:27:51;4.07;;;1.27;;
39434;SDS011;30098;51.880;-0.518;2022-10-16T06:30:16;3.63;;;1.25;;
39434;SDS011;30098;51.880;-0.518;2022-10-16T06:32:42;2.85;;;0.90;;
39434;SDS011;30098;51.880;-0.518;2022-10-16T06:35:07;3.17;;;1.00;;
39434;SDS011;30098;51.880;-0.518;2022-10-16T06:37:33;1.92;;;0.77;;
39434;SDS011;30098;51.880;-0.518;2022-10-16T06:39:58;2.40;;;1.00;;
39434;SDS011;30098;51.880;-0.518;2022-10-16T06:42:25;3.00;;;1.00;;
39434;SDS011;30098;51.880;-0.518;2022-10-16T06:44:51;2.33;;;1.10;;
39434;SDS011;30098;51.880;-0.518;2022-10-16T06:47:16;3.95;;;1.13;;
39434;SDS011;30098;51.880;-0.518;2022-10-16T06:49:42;2.53;;;1.00;;
39434;SDS011;30098;51.880;-0.518;2022-10-16T06:52:07;2.15;;;0.85;;
39434;SDS011;30098;51.880;-0.518;2022-10-16T06:54:32;2.60;;;0.90;;
39434;SDS011;30098;51.880;-0.518;2022-10-16T06:56:58;3.42;;;1.10;;
39434;SDS011;30098;51.880;-0.518;2022-10-16T06:59:25;2.65;;;0.77;;
39434;SDS011;30098;51.880;-0.518;2022-10-16T07:01:50;2.90;;;1.08;;
39434;SDS011;30098;51.880;-0.518;2022-10-16T07:04:15;3.65;;;1.13;;
39434;SDS011;30098;51.880;-0.518;2022-10-16T07:06:41;2.80;;;0.93;;
39434;SDS011;30098;51.880;-0.518;2022-10-16T07:09:08;2.75;;;1.05;;
39434;SDS011;30098;51.880;-0.518;2022-10-16T07:11:36;2.83;;;0.95;;
39434;SDS011;30098;51.880;-0.518;2022-10-16T07:14:03;2.83;;;0.80;;
39434;SDS011;30098;51.880;-0.518;2022-10-16T07:16:29;2.80;;;0.73;;
39434;SDS011;30098;51.880;-0.518;2022-10-16T07:18:57;2.58;;;1.00;;
39434;SDS011;30098;51.880;-0.518;2022-10-16T07:21:24;3.03;;;1.00;;
39434;SDS011;30098;51.880;-0.518;2022-10-16T07:23:51;2.58;;;0.82;;
39434;SDS011;30098;51.880;-0.518;2022-10-16T07:26:18;1.85;;;0.90;;
39434;SDS011;30098;51.880;-0.518;2022-10-16T07:28:43;2.28;;;0.88;;
39434;SDS011;30098;51.880;-0.518;2022-10-16T07:31:10;2.47;;;1.00;;
39434;SDS011;30098;51.880;-0.518;2022-10-16T07:33:38;3.17;;;1.05;;
39434;SDS011;30098;51.880;-0.518;2022-10-16T07:36:07;3.15;;;0.90;;
39434;SDS011;30098;51.880;-0.518;2022-10-16T07:38:32;2.45;;;0.80;;
39434;SDS011;30098;51.880;-0.518;2022-10-16T07:40:59;3.28;;;1.00;;
39434;SDS011;30098;51.880;-0.518;2022-10-16T07:43:28;2.80;;;1.10;;
39434;SDS011;30098;51.880;-0.518;2022-10-16T07:45:53;1.65;;;0.73;;
39434;SDS011;30098;51.880;-0.518;2022-10-16T07:48:20;2.30;;;1.00;;
39434;SDS011;30098;51.880;-0.518;2022-10-16T07:50:47;2.20;;;1.00;;
39434;SDS011;30098;51.880;-0.518;2022-10-16T07:53:13;2.63;;;0.82;;
39434;SDS011;30098;51.880;-0.518;2022-10-16T07:55:39;2.22;;;0.90;;
39434;SDS011;30098;51.880;-0.518;2022-10-16T07:58:05;5.45;;;0.98;;
39434;SDS011;30098;51.880;-0.518;2022-10-16T08:00:31;2.53;;;0.80;;
39434;SDS011;30098;51.880;-0.518;2022-10-16T08:02:57;1.63;;;0.73;;
39434;SDS011;30098;51.880;-0.518;2022-10-16T08:05:28;2.15;;;0.77;;
39434;SDS011;30098;51.880;-0.518;2022-10-16T08:07:54;2.63;;;1.00;;
39434;SDS011;30098;51.880;-0.518;2022-10-16T08:10:21;2.33;;;0.95;;
39434;SDS011;30098;51.880;-0.518;2022-10-16T08:12:48;1.70;;;0.80;;
39434;SDS011;30098;51.880;-0.518;2022-10-16T08:15:14;2.17;;;0.80;;
39434;SDS011;30098;51.880;-0.518;2022-10-16T08:17:39;2.67;;;0.98;;
39434;SDS011;30098;51.880;-0.518;2022-10-16T08:20:05;2.17;;;0.80;;
39434;SDS011;30098;51.880;-0.518;2022-10-16T08:22:30;2.67;;;1.23;;
39434;SDS011;30098;51.880;-0.518;2022-10-16T08:24:56;3.38;;;0.90;;
39434;SDS011;30098;51.880;-0.518;2022-10-16T08:27:22;2.95;;;1.00;;
39434;SDS011;30098;51.880;-0.518;2022-10-16T08:29:50;2.08;;;0.98;;
39434;SDS011;30098;51.880;-0.518;2022-10-16T08:32:15;2.90;;;0.90;;
39434;SDS011;30098;51.880;-0.518;2022-10-16T08:34:41;3.05;;;0.90;;
39434;SDS011;30098;51.880;-0.518;2022-10-16T08:37:06;2.22;;;0.80;;
39434;SDS011;30098;51.880;-0.518;2022-10-16T08:39:36;2.88;;;1.08;;
39434;SDS011;30098;51.880;-0.518;2022-10-16T08:47:35;2.40;;;1.15;;
39434;SDS011;30098;51.880;-0.518;2022-10-16T08:50:15;2.35;;;0.80;;
39434;SDS011;30098;51.880;-0.518;2022-10-16T08:52:46;2.72;;;1.08;;
39434;SDS011;30098;51.880;-0.518;2022-10-16T08:55:28;2.33;;;0.98;;
39434;SDS011;30098;51.880;-0.518;2022-10-16T08:57:57;2.40;;;1.10;;
39434;SDS011;30098;51.880;-0.518;2022-10-16T09:00:23;3.10;;;0.90;;
39434;SDS011;30098;51.880;-0.518;2022-10-16T09:08:30;3.92;;;1.20;;
39434;SDS011;30098;51.880;-0.518;2022-10-16T09:16:50;3.25;;;0.98;;
39434;SDS011;30098;51.880;-0.518;2022-10-16T09:22:02;2.47;;;0.90;;
39434;SDS011;30098;51.880;-0.518;2022-10-16T09:24:37;2.97;;;1.00;;
39434;SDS011;30098;51.880;-0.518;2022-10-16T09:27:03;3.67;;;1.30;;
39434;SDS011;30098;51.880;-0.518;2022-10-16T09:29:28;2.78;;;1.00;;
39434;SDS011;30098;51.880;-0.518;2022-10-16T09:31:54;2.72;;;0.98;;
39434;SDS011;30098;51.880;-0.518;2022-10-16T09:34:35;3.17;;;0.95;;
39434;SDS011;30098;51.880;-0.518;2022-10-16T09:37:05;3.72;;;1.10;;
39434;SDS011;30098;51.880;-0.518;2022-10-16T09:39:50;3.33;;;1.30;;
39434;SDS011;30098;51.880;-0.518;2022-10-16T09:42:17;3.20;;;1.00;;
39434;SDS011;30098;51.880;-0.518;2022-10-16T09:44:49;4.15;;;1.33;;
39434;SDS011;30098;51.880;-0.518;2022-10-16T09:49:53;3.13;;;1.00;;
39434;SDS011;30098;51.880;-0.518;2022-10-16T09:52:31;3.20;;;1.10;;
39434;SDS011;30098;51.880;-0.518;2022-10-16T09:55:02;3.97;;;1.20;;
39434;SDS011;30098;51.880;-0.518;2022-10-16T09:57:54;3.08;;;1.02;;
39434;SDS011;30098;51.880;-0.518;2022-10-16T10:00:21;3.72;;;1.10;;
39434;SDS011;30098;51.880;-0.518;2022-10-16T10:02:48;3.15;;;0.90;;
39434;SDS011;30098;51.880;-0.518;2022-10-16T10:05:18;3.67;;;1.23;;
39434;SDS011;30098;51.880;-0.518;2022-10-16T10:07:57;3.92;;;1.20;;
39434;SDS011;30098;51.880;-0.518;2022-10-16T10:10:28;2.97;;;1.23;;
39434;SDS011;30098;51.880;-0.518;2022-10-16T10:12:56;4.03;;;1.30;;
39434;SDS011;30098;51.880;-0.518;2022-10-16T10:15:22;4.38;;;1.02;;
39434;SDS011;30098;51.880;-0.518;2022-10-16T10:17:52;2.85;;;1.17;;
39434;SDS011;30098;51.880;-0.518;2022-10-16T10:22:53;4.10;;;1.30;;
39434;SDS011;30098;51.880;-0.518;2022-10-16T10:38:38;3.80;;;1.23;;
39434;SDS011;30098;51.880;-0.518;2022-10-16T10:54:55;3.17;;;1.13;;
39434;SDS011;30098;51.880;-0.518;2022-10-16T10:58:10;2.80;;;0.90;;
39434;SDS011;30098;51.880;-0.518;2022-10-16T11:00:30;2.85;;;0.80;;
39434;SDS011;30098;51.880;-0.518;2022-10-16T11:06:10;2.90;;;0.90;;
39434;SDS011;30098;51.880;-0.518;2022-10-16T11:08:43;2.50;;;0.77;;
39434;SDS011;30098;51.880;-0.518;2022-10-16T11:11:22;2.47;;;0.95;;
39434;SDS011;30098;51.880;-0.518;2022-10-16T11:13:57;2.40;;;0.80;;
39434;SDS011;30098;51.880;-0.518;2022-10-16T11:19:11;2.78;;;1.13;;
39434;SDS011;30098;51.880;-0.518;2022-10-16T11:21:46;2.10;;;0.77;;
39434;SDS011;30098;51.880;-0.518;2022-10-16T11:27:09;2.55;;;0.77;;
39434;SDS011;30098;51.880;-0.518;2022-10-16T11:29:43;2.67;;;0.80;;
39434;SDS011;30098;51.880;-0.518;2022-10-16T11:32:54;3.60;;;0.90;;
39434;SDS011;30098;51.880;-0.518;2022-10-16T11:35:23;3.15;;;1.10;;
39434;SDS011;30098;51.880;-0.518;2022-10-16T11:37:57;2.35;;;0.80;;
39434;SDS011;30098;51.880;-0.518;2022-10-16T11:40:31;1.92;;;0.80;;
39434;SDS011;30098;51.880;-0.518;2022-10-16T11:43:06;1.98;;;0.77;;
39434;SDS011;30098;51.880;-0.518;2022-10-16T11:45:44;2.75;;;0.90;;
39434;SDS011;30098;51.880;-0.518;2022-10-16T11:48:27;2.75;;;0.80;;
39434;SDS011;30098;51.880;-0.518;2022-10-16T11:51:16;1.58;;;0.65;;
39434;SDS011;30098;51.880;-0.518;2022-10-16T11:56:46;2.72;;;0.70;;
39434;SDS011;30098;51.880;-0.518;2022-10-16T12:02:21;1.90;;;0.70;;
39434;SDS011;30098;51.880;-0.518;2022-10-16T12:05:01;1.88;;;0.75;;
39434;SDS011;30098;51.880;-0.518;2022-10-16T12:10:18;2.35;;;0.80;;
39434;SDS011;30098;51.880;-0.518;2022-10-16T12:12:46;2.60;;;0.80;;
39434;SDS011;30098;51.880;-0.518;2022-10-16T12:17:46;1.67;;;0.60;;
39434;SDS011;30098;51.880;-0.518;2022-10-16T12:22:41;1.70;;;0.73;;
39434;SDS011;30098;51.880;-0.518;2022-10-16T12:30:33;1.98;;;0.60;;
39434;SDS011;30098;51.880;-0.518;2022-10-16T12:33:04;1.60;;;0.70;;
39434;SDS011;30098;51.880;-0.518;2022-10-16T12:35:45;2.25;;;0.88;;
39434;SDS011;30098;51.880;-0.518;2022-10-16T12:38:15;2.47;;;0.80;;
39434;SDS011;30098;51.880;-0.518;2022-10-16T12:40:41;1.95;;;0.65;;
39434;SDS011;30098;51.880;-0.518;2022-10-16T12:46:20;1.70;;;0.60;;
39434;SDS011;30098;51.880;-0.518;2022-10-16T12:48:48;1.23;;;0.50;;
39434;SDS011;30098;51.880;-0.518;2022-10-16T12:51:25;1.42;;;0.70;;
39434;SDS011;30098;51.880;-0.518;2022-10-16T12:54:15;2.20;;;0.60;;
39434;SDS011;30098;51.880;-0.518;2022-10-16T12:57:15;1.45;;;0.70;;
39434;SDS011;30098;51.880;-0.518;2022-10-16T13:03:11;1.73;;;0.70;;
39434;SDS011;30098;51.880;-0.518;2022-10-16T13:14:31;1.20;;;0.60;;
39434;SDS011;30098;51.880;-0.518;2022-10-16T13:17:07;1.58;;;0.60;;
39434;SDS011;30098;51.880;-0.518;2022-10-16T13:32:46;1.88;;;0.60;;
39434;SDS011;30098;51.880;-0.518;2022-10-16T13:35:18;1.42;;;0.60;;
39434;SDS011;30098;51.880;-0.518;2022-10-16T13:37:48;1.45;;;0.63;;
39434;SDS011;30098;51.880;-0.518;2022-10-16T13:40:23;1.48;;;0.70;;
39434;SDS011;30098;51.880;-0.518;2022-10-16T13:42:52;2.70;;;0.70;;
39434;SDS011;30098;51.880;-0.518;2022-10-16T13:45:19;1.23;;;0.50;;
39434;SDS011;30098;51.880;-0.518;2022-10-16T13:47:46;1.33;;;0.45;;
39434;SDS011;30098;51.880;-0.518;2022-10-16T13:50:13;2.35;;;0.75;;
39434;SDS011;30098;51.880;-0.518;2022-10-16T13:52:41;1.60;;;0.60;;
39434;SDS011;30098;51.880;-0.518;2022-10-16T13:55:13;1.67;;;0.60;;
39434;SDS011;30098;51.880;-0.518;2022-10-16T13:57:40;1.60;;;0.60;;
39434;SDS011;30098;51.880;-0.518;2022-10-16T14:02:45;1.67;;;0.70;;
39434;SDS011;30098;51.880;-0.518;2022-10-16T14:05:36;1.80;;;0.77;;
39434;SDS011;30098;51.880;-0.518;2022-10-16T14:08:11;1.75;;;0.80;;
39434;SDS011;30098;51.880;-0.518;2022-10-16T14:10:37;1.73;;;0.70;;
39434;SDS011;30098;51.880;-0.518;2022-10-16T14:13:04;1.42;;;0.60;;
39434;SDS011;30098;51.880;-0.518;2022-10-16T14:15:31;1.83;;;0.70;;
39434;SDS011;30098;51.880;-0.518;2022-10-16T14:18:01;3.08;;;0.88;;
39434;SDS011;30098;51.880;-0.518;2022-10-16T14:20:29;1.92;;;0.77;;
39434;SDS011;30098;51.880;-0.518;2022-10-16T14:25:27;2.13;;;0.73;;
39434;SDS011;30098;51.880;-0.518;2022-10-16T14:30:27;1.13;;;0.55;;
39434;SDS011;30098;51.880;-0.518;2022-10-16T14:32:57;1.95;;;0.60;;
39434;SDS011;30098;51.880;-0.518;2022-10-16T14:35:26;3.05;;;0.70;;
39434;SDS011;30098;51.880;-0.518;2022-10-16T14:37:56;2.03;;;0.80;;
39434;SDS011;30098;51.880;-0.518;2022-10-16T14:40:25;1.58;;;0.60;;
39434;SDS011;30098;51.880;-0.518;2022-10-16T14:42:53;1.45;;;0.70;;
39434;SDS011;30098;51.880;-0.518;2022-10-16T14:45:22;1.60;;;0.60;;
39434;SDS011;30098;51.880;-0.518;2022-10-16T14:47:52;2.13;;;0.70;;
39434;SDS011;30098;51.880;-0.518;2022-10-16T14:50:20;1.60;;;0.75;;
39434;SDS011;30098;51.880;-0.518;2022-10-16T14:52:46;2.15;;;1.00;;
39434;SDS011;30098;51.880;-0.518;2022-10-16T14:55:12;1.92;;;0.70;;
39434;SDS011;30098;51.880;-0.518;2022-10-16T14:57:38;2.17;;;0.80;;
39434;SDS011;30098;51.880;-0.518;2022-10-16T15:00:15;1.80;;;0.70;;
39434;SDS011;30098;51.880;-0.518;2022-10-16T15:02:43;2.05;;;0.80;;
39434;SDS011;30098;51.880;-0.518;2022-10-16T15:07:47;1.17;;;0.60;;
39434;SDS011;30098;51.880;-0.518;2022-10-16T15:10:14;2.88;;;0.88;;
39434;SDS011;30098;51.880;-0.518;2022-10-16T15:12:40;3.65;;;0.90;;
39434;SDS011;30098;51.880;-0.518;2022-10-16T15:15:15;2.42;;;0.80;;
39434;SDS011;30098;51.880;-0.518;2022-10-16T15:17:45;2.15;;;0.88;;
39434;SDS011;30098;51.880;-0.518;2022-10-16T15:20:11;2.13;;;1.00;;
39434;SDS011;30098;51.880;-0.518;2022-10-16T15:22:36;2.60;;;0.70;;
39434;SDS011;30098;51.880;-0.518;2022-10-16T15:25:04;3.63;;;1.08;;
39434;SDS011;30098;51.880;-0.518;2022-10-16T15:27:42;2.33;;;0.77;;
39434;SDS011;30098;51.880;-0.518;2022-10-16T15:30:08;3.03;;;0.80;;
39434;SDS011;30098;51.880;-0.518;2022-10-16T15:32:33;3.38;;;1.15;;
39434;SDS011;30098;51.880;-0.518;2022-10-16T15:34:59;2.35;;;0.70;;
39434;SDS011;30098;51.880;-0.518;2022-10-16T15:37:24;2.88;;;0.90;;
39434;SDS011;30098;51.880;-0.518;2022-10-16T15:39:50;1.75;;;0.77;;
39434;SDS011;30098;51.880;-0.518;2022-10-16T15:42:15;3.00;;;1.00;;
39434;SDS011;30098;51.880;-0.518;2022-10-16T15:44:41;2.95;;;1.00;;
39434;SDS011;30098;51.880;-0.518;2022-10-16T15:47:07;2.08;;;0.82;;
39434;SDS011;30098;51.880;-0.518;2022-10-16T15:49:33;2.15;;;0.80;;
39434;SDS011;30098;51.880;-0.518;2022-10-16T15:51:58;3.92;;;1.20;;
39434;SDS011;30098;51.880;-0.518;2022-10-16T15:54:24;3.35;;;0.80;;
39434;SDS011;30098;51.880;-0.518;2022-10-16T15:56:49;2.20;;;0.90;;
39434;SDS011;30098;51.880;-0.518;2022-10-16T15:59:14;3.05;;;1.00;;
39434;SDS011;30098;51.880;-0.518;2022-10-16T16:01:40;2.08;;;1.00;;
39434;SDS011;30098;51.880;-0.518;2022-10-16T16:04:06;2.55;;;0.93;;
39434;SDS011;30098;51.880;-0.518;2022-10-16T16:06:31;2.03;;;0.98;;
39434;SDS011;30098;51.880;-0.518;2022-10-16T16:08:57;3.20;;;0.98;;
39434;SDS011;30098;51.880;-0.518;2022-10-16T16:11:24;4.50;;;1.63;;
39434;SDS011;30098;51.880;-0.518;2022-10-16T16:13:50;2.35;;;0.90;;
39434;SDS011;30098;51.880;-0.518;2022-10-16T16:16:16;3.28;;;1.10;;
39434;SDS011;30098;51.880;-0.518;2022-10-16T16:18:42;3.08;;;1.00;;
39434;SDS011;30098;51.880;-0.518;2022-10-16T16:21:09;2.85;;;1.10;;
39434;SDS011;30098;51.880;-0.518;2022-10-16T16:23:37;3.20;;;1.13;;
39434;SDS011;30098;51.880;-0.518;2022-10-16T16:26:07;2.72;;;1.08;;
39434;SDS011;30098;51.880;-0.518;2022-10-16T16:28:37;3.95;;;1.35;;
39434;SDS011;30098;51.880;-0.518;2022-10-16T16:31:03;4.68;;;1.27;;
39434;SDS011;30098;51.880;-0.518;2022-10-16T16:33:29;2.78;;;1.08;;
39434;SDS011;30098;51.880;-0.518;2022-10-16T16:36:00;3.45;;;1.20;;
39434;SDS011;30098;51.880;-0.518;2022-10-16T16:40:53;3.63;;;0.98;;
39434;SDS011;30098;51.880;-0.518;2022-10-16T16:43:18;3.03;;;1.20;;
39434;SDS011;30098;51.880;-0.518;2022-10-16T16:45:47;4.13;;;1.45;;
39434;SDS011;30098;51.880;-0.518;2022-10-16T16:48:12;4.30;;;1.38;;
39434;SDS011;30098;51.880;-0.518;2022-10-16T16:50:38;3.80;;;1.50;;
39434;SDS011;30098;51.880;-0.518;2022-10-16T16:53:03;4.25;;;1.35;;
39434;SDS011;30098;51.880;-0.518;2022-10-16T16:55:29;4.45;;;1.60;;
39434;SDS011;30098;51.880;-0.518;2022-10-16T16:57:54;3.88;;;1.48;;